createdAt,value
2017-01-06T00:00:50.505Z,102626
2017-01-06T00:01:51.197Z,102622
2017-01-06T00:02:50.728Z,102627
2017-01-06T00:03:51.177Z,102626
2017-01-06T00:04:50.788Z,102622
2017-01-06T00:05:50.876Z,102630
2017-01-06T00:06:51.304Z,102632
2017-01-06T00:07:51.440Z,102631
2017-01-06T00:08:50.936Z,102622
2017-01-06T00:09:51.020Z,102633
2017-01-06T00:10:50.985Z,102630
2017-01-06T00:11:51.597Z,102623
2017-01-06T00:12:51.056Z,102631
2017-01-06T00:13:51.613Z,102626
2017-01-06T00:14:51.232Z,102626
2017-01-06T00:15:51.850Z,102631
2017-01-06T00:16:51.322Z,102635
2017-01-06T00:17:51.421Z,102627
2017-01-06T00:18:51.442Z,102627
2017-01-06T00:19:51.639Z,102633
2017-01-06T00:20:52.143Z,102630
2017-01-06T00:21:52.239Z,102639
2017-01-06T00:22:52.261Z,102634
2017-01-06T00:23:51.812Z,102634
2017-01-06T00:24:51.824Z,102630
2017-01-06T00:25:52.458Z,102625
2017-01-06T00:26:51.904Z,102630
2017-01-06T00:27:53.122Z,102627
2017-01-06T00:28:52.591Z,102625
2017-01-06T00:29:52.636Z,102623
2017-01-06T00:30:52.148Z,102626
2017-01-06T00:31:52.750Z,102623
2017-01-06T00:32:52.178Z,102624
2017-01-06T00:33:52.803Z,102625
2017-01-06T00:34:52.344Z,102627
2017-01-06T00:35:52.365Z,102625
2017-01-06T00:36:52.945Z,102632
2017-01-06T00:37:53.614Z,102632
2017-01-06T00:38:52.504Z,102637
2017-01-06T00:39:53.121Z,102634
2017-01-06T00:40:52.692Z,102634
2017-01-06T00:41:53.174Z,102635
2017-01-06T00:42:52.765Z,102637
2017-01-06T00:43:52.824Z,102640
2017-01-06T00:44:53.447Z,102634
2017-01-06T00:45:53.082Z,102636
2017-01-06T00:46:52.998Z,102639
2017-01-06T00:47:53.077Z,102638
2017-01-06T00:48:53.663Z,102629
2017-01-06T00:49:53.711Z,102634
2017-01-06T00:50:53.202Z,102633
2017-01-06T00:51:53.302Z,102628
2017-01-06T00:52:54.013Z,102633
2017-01-06T00:53:53.406Z,102635
2017-01-06T00:54:53.429Z,102631
2017-01-06T00:55:54.053Z,102634
2017-01-06T00:56:54.132Z,102627
2017-01-06T00:57:54.946Z,102636
2017-01-06T00:58:54.195Z,102638
2017-01-06T00:59:54.192Z,102641
2017-01-06T01:00:54.159Z,102642
2017-01-06T01:01:53.691Z,102644
2017-01-06T01:02:53.721Z,102636
2017-01-06T01:03:54.297Z,102643
2017-01-06T01:04:53.836Z,102640
2017-01-06T01:05:54.531Z,102639
2017-01-06T01:06:53.955Z,102636
2017-01-06T01:07:54.037Z,102635
2017-01-06T01:08:54.008Z,102629
2017-01-06T01:09:54.043Z,102635
2017-01-06T01:10:54.637Z,102636
2017-01-06T01:11:54.680Z,102638
2017-01-06T01:12:54.143Z,102641
2017-01-06T01:13:54.749Z,102643
2017-01-06T01:14:54.251Z,102644
2017-01-06T01:15:54.903Z,102649
2017-01-06T01:16:55.025Z,102652
2017-01-06T01:17:54.531Z,102648
2017-01-06T01:18:55.142Z,102646
2017-01-06T01:19:54.583Z,102653
2017-01-06T01:20:55.269Z,102655
2017-01-06T01:21:54.728Z,102653
2017-01-06T01:22:55.270Z,102644
2017-01-06T01:23:55.376Z,102640
2017-01-06T01:24:55.463Z,102649
2017-01-06T01:25:55.538Z,102644
2017-01-06T01:26:55.101Z,102646
2017-01-06T01:27:56.360Z,102640
2017-01-06T01:28:55.726Z,102641
2017-01-06T01:29:55.283Z,102641
2017-01-06T01:30:55.806Z,102641
2017-01-06T01:31:55.325Z,102647
2017-01-06T01:32:55.459Z,102646
2017-01-06T01:33:55.971Z,102646
2017-01-06T01:34:55.531Z,102645
2017-01-06T01:35:56.020Z,102645
2017-01-06T01:36:56.096Z,102644
2017-01-06T01:37:55.683Z,102643
2017-01-06T01:38:56.289Z,102647
2017-01-06T01:39:55.776Z,102644
2017-01-06T01:40:55.849Z,102639
2017-01-06T01:41:56.513Z,102641
2017-01-06T01:42:56.507Z,102642
2017-01-06T01:43:56.556Z,102639
2017-01-06T01:44:56.071Z,102639
2017-01-06T01:45:56.655Z,102641
2017-01-06T01:46:57.274Z,102647
2017-01-06T01:47:56.219Z,102650
2017-01-06T01:48:56.322Z,102649
2017-01-06T01:49:56.360Z,102642
2017-01-06T01:50:56.404Z,102656
2017-01-06T01:51:56.537Z,102656
2017-01-06T01:52:56.479Z,102657
2017-01-06T01:53:57.920Z,102646
2017-01-06T01:54:57.115Z,102658
2017-01-06T01:55:56.724Z,102657
2017-01-06T01:56:56.617Z,102649
2017-01-06T01:57:56.731Z,102644
2017-01-06T01:58:56.781Z,102650
2017-01-06T01:59:56.816Z,102645
2017-01-06T02:00:56.902Z,102644
2017-01-06T02:01:56.909Z,102636
2017-01-06T02:02:57.525Z,102643
2017-01-06T02:03:57.073Z,102643
2017-01-06T02:04:57.621Z,102647
2017-01-06T02:05:57.746Z,102648
2017-01-06T02:06:57.642Z,102638
2017-01-06T02:07:57.140Z,102651
2017-01-06T02:08:57.221Z,102646
2017-01-06T02:09:57.351Z,102648
2017-01-06T02:10:57.370Z,102649
2017-01-06T02:11:57.960Z,102650
2017-01-06T02:12:57.904Z,102645
2017-01-06T02:13:57.956Z,102639
2017-01-06T02:14:57.436Z,102643
2017-01-06T02:15:57.577Z,102638
2017-01-06T02:16:57.608Z,102636
2017-01-06T02:17:58.133Z,102628
2017-01-06T02:18:58.203Z,102632
2017-01-06T02:19:58.303Z,102635
2017-01-06T02:20:58.393Z,102639
2017-01-06T02:21:58.458Z,102637
2017-01-06T02:22:57.943Z,102638
2017-01-06T02:23:58.490Z,102637
2017-01-06T02:24:58.615Z,102640
2017-01-06T02:25:59.311Z,102642
2017-01-06T02:26:58.738Z,102647
2017-01-06T02:27:58.224Z,102650
2017-01-06T02:28:58.304Z,102648
2017-01-06T02:29:58.936Z,102652
2017-01-06T02:30:58.942Z,102654
2017-01-06T02:31:59.002Z,102656
2017-01-06T02:32:58.976Z,102652
2017-01-06T02:33:58.619Z,102652
2017-01-06T02:34:59.130Z,102640
2017-01-06T02:35:59.174Z,102650
2017-01-06T02:36:59.210Z,102650
2017-01-06T02:37:59.259Z,102648
2017-01-06T02:38:59.510Z,102659
2017-01-06T02:39:58.780Z,102663
2017-01-06T02:40:58.880Z,102663
2017-01-06T02:41:58.932Z,102665
2017-01-06T02:42:58.960Z,102664
2017-01-06T02:43:59.509Z,102669
2017-01-06T02:44:59.550Z,102665
2017-01-06T02:45:59.574Z,102668
2017-01-06T02:46:59.619Z,102668
2017-01-06T02:47:59.110Z,102673
2017-01-06T02:48:59.727Z,102671
2017-01-06T02:50:00.256Z,102672
2017-01-06T02:51:00.386Z,102664
2017-01-06T02:51:59.245Z,102675
2017-01-06T02:52:59.859Z,102668
2017-01-06T02:53:59.840Z,102674
2017-01-06T02:54:59.449Z,102666
2017-01-06T02:55:59.512Z,102675
2017-01-06T02:57:00.040Z,102671
2017-01-06T02:57:59.513Z,102668
2017-01-06T02:59:00.174Z,102673
2017-01-06T03:00:00.186Z,102672
2017-01-06T03:00:59.630Z,102681
2017-01-06T03:01:59.639Z,102677
2017-01-06T03:02:59.680Z,102677
2017-01-06T03:04:00.268Z,102674
2017-01-06T03:05:00.407Z,102673
2017-01-06T03:06:01.171Z,102674
2017-01-06T03:07:00.045Z,102669
2017-01-06T03:08:00.502Z,102675
2017-01-06T03:09:01.957Z,102670
2017-01-06T03:10:00.775Z,102668
2017-01-06T03:11:00.168Z,102676
2017-01-06T03:12:00.111Z,102674
2017-01-06T03:13:00.120Z,102672
2017-01-06T03:14:00.680Z,102675
2017-01-06T03:15:00.156Z,102676
2017-01-06T03:16:00.277Z,102679
2017-01-06T03:17:00.920Z,102678
2017-01-06T03:18:00.834Z,102676
2017-01-06T03:19:00.842Z,102679
2017-01-06T03:20:00.366Z,102676
2017-01-06T03:21:00.423Z,102680
2017-01-06T03:22:00.508Z,102686
2017-01-06T03:23:00.483Z,102684
2017-01-06T03:24:00.517Z,102674
2017-01-06T03:25:00.514Z,102684
2017-01-06T03:26:00.601Z,102680
2017-01-06T03:27:01.236Z,102682
2017-01-06T03:28:01.224Z,102685
2017-01-06T03:29:00.769Z,102684
2017-01-06T03:30:01.285Z,102676
2017-01-06T03:31:01.270Z,102683
2017-01-06T03:32:01.300Z,102682
2017-01-06T03:33:01.377Z,102684
2017-01-06T03:34:00.761Z,102678
2017-01-06T03:35:01.469Z,102690
2017-01-06T03:36:00.981Z,102694
2017-01-06T03:37:01.518Z,102680
2017-01-06T03:38:01.586Z,102691
2017-01-06T03:39:01.634Z,102690
2017-01-06T03:40:01.692Z,102681
2017-01-06T03:41:01.213Z,102690
2017-01-06T03:42:01.762Z,102689
2017-01-06T03:43:01.830Z,102686
2017-01-06T03:44:01.889Z,102688
2017-01-06T03:45:01.417Z,102692
2017-01-06T03:46:02.671Z,102692
2017-01-06T03:47:01.886Z,102694
2017-01-06T03:48:01.995Z,102693
2017-01-06T03:49:01.539Z,102688
2017-01-06T03:50:02.084Z,102697
2017-01-06T03:51:01.586Z,102696
2017-01-06T03:52:01.650Z,102692
2017-01-06T03:53:02.180Z,102694
2017-01-06T03:54:02.232Z,102692
2017-01-06T03:55:01.803Z,102691
2017-01-06T03:56:02.449Z,102694
2017-01-06T03:57:01.897Z,102691
2017-01-06T03:58:02.022Z,102690
2017-01-06T03:59:02.026Z,102695
2017-01-06T04:00:02.546Z,102693
2017-01-06T04:01:02.098Z,102696
2017-01-06T04:02:02.626Z,102686
2017-01-06T04:03:02.163Z,102695
2017-01-06T04:04:02.172Z,102690
2017-01-06T04:05:02.814Z,102694
2017-01-06T04:06:02.796Z,102683
2017-01-06T04:07:02.854Z,102697
2017-01-06T04:08:02.910Z,102693
2017-01-06T04:09:02.893Z,102696
2017-01-06T04:10:02.981Z,102692
2017-01-06T04:11:02.926Z,102691
2017-01-06T04:12:03.022Z,102699
2017-01-06T04:13:02.533Z,102697
2017-01-06T04:14:02.557Z,102701
2017-01-06T04:15:02.694Z,102688
2017-01-06T04:16:03.391Z,102699
2017-01-06T04:17:03.343Z,102702
2017-01-06T04:18:03.336Z,102695
2017-01-06T04:19:03.359Z,102693
2017-01-06T04:20:03.427Z,102698
2017-01-06T04:21:02.992Z,102694
2017-01-06T04:22:03.474Z,102693
2017-01-06T04:23:03.523Z,102685
2017-01-06T04:24:03.043Z,102696
2017-01-06T04:25:03.161Z,102692
2017-01-06T04:26:03.211Z,102696
2017-01-06T04:27:03.288Z,102688
2017-01-06T04:28:03.836Z,102701
2017-01-06T04:29:03.498Z,102699
2017-01-06T04:30:03.434Z,102691
2017-01-06T04:31:03.350Z,102695
2017-01-06T04:32:03.369Z,102696
2017-01-06T04:33:04.749Z,102700
2017-01-06T04:34:03.535Z,102701
2017-01-06T04:35:03.600Z,102700
2017-01-06T04:36:04.136Z,102693
2017-01-06T04:37:03.589Z,102701
2017-01-06T04:38:03.756Z,102693
2017-01-06T04:39:04.314Z,102690
2017-01-06T04:40:03.769Z,102689
2017-01-06T04:41:04.461Z,102693
2017-01-06T04:42:04.417Z,102692
2017-01-06T04:43:04.447Z,102688
2017-01-06T04:44:03.980Z,102688
2017-01-06T04:45:04.589Z,102693
2017-01-06T04:46:04.108Z,102685
2017-01-06T04:47:05.336Z,102690
2017-01-06T04:48:04.266Z,102689
2017-01-06T04:49:04.364Z,102687
2017-01-06T04:50:04.949Z,102690
2017-01-06T04:51:04.969Z,102694
2017-01-06T04:52:05.001Z,102685
2017-01-06T04:53:04.531Z,102699
2017-01-06T04:54:05.094Z,102695
2017-01-06T04:55:04.675Z,102695
2017-01-06T04:56:04.657Z,102701
2017-01-06T04:57:04.688Z,102695
2017-01-06T04:58:05.287Z,102703
2017-01-06T04:59:04.782Z,102710
2017-01-06T05:00:04.804Z,102712
2017-01-06T05:01:04.861Z,102712
2017-01-06T05:02:05.406Z,102704
2017-01-06T05:03:05.476Z,102715
2017-01-06T05:04:05.531Z,102713
2017-01-06T05:05:05.605Z,102715
2017-01-06T05:06:05.100Z,102713
2017-01-06T05:07:05.654Z,102719
2017-01-06T05:08:05.206Z,102721
2017-01-06T05:09:05.853Z,102719
2017-01-06T05:10:05.297Z,102721
2017-01-06T05:11:05.867Z,102717
2017-01-06T05:12:05.373Z,102732
2017-01-06T05:13:06.057Z,102728
2017-01-06T05:14:05.600Z,102727
2017-01-06T05:15:06.186Z,102728
2017-01-06T05:16:06.864Z,102717
2017-01-06T05:17:06.326Z,102725
2017-01-06T05:18:05.877Z,102726
2017-01-06T05:19:06.488Z,102728
2017-01-06T05:20:06.001Z,102723
2017-01-06T05:21:06.557Z,102726
2017-01-06T05:22:06.547Z,102725
2017-01-06T05:23:06.093Z,102714
2017-01-06T05:24:06.825Z,102713
2017-01-06T05:25:06.197Z,102714
2017-01-06T05:26:06.677Z,102727
2017-01-06T05:27:06.210Z,102737
2017-01-06T05:28:06.829Z,102728
2017-01-06T05:29:06.899Z,102733
2017-01-06T05:30:06.925Z,102736
2017-01-06T05:31:06.461Z,102726
2017-01-06T05:32:06.514Z,102723
2017-01-06T05:33:07.117Z,102729
2017-01-06T05:34:07.220Z,102734
2017-01-06T05:35:06.737Z,102736
2017-01-06T05:36:06.777Z,102733
2017-01-06T05:37:07.392Z,102731
2017-01-06T05:38:06.884Z,102734
2017-01-06T05:39:07.415Z,102736
2017-01-06T05:40:07.550Z,102737
2017-01-06T05:41:07.541Z,102742
2017-01-06T05:42:07.081Z,102750
2017-01-06T05:43:07.191Z,102745
2017-01-06T05:44:07.675Z,102745
2017-01-06T05:45:07.665Z,102745
2017-01-06T05:46:07.768Z,102743
2017-01-06T05:47:07.923Z,102748
2017-01-06T05:48:07.877Z,102744
2017-01-06T05:49:07.850Z,102751
2017-01-06T05:50:07.392Z,102745
2017-01-06T05:51:08.070Z,102752
2017-01-06T05:52:07.979Z,102744
2017-01-06T05:53:08.025Z,102756
2017-01-06T05:54:07.596Z,102753
2017-01-06T05:55:07.626Z,102747
2017-01-06T05:56:07.635Z,102751
2017-01-06T05:57:07.618Z,102756
2017-01-06T05:58:08.176Z,102754
2017-01-06T05:59:07.712Z,102753
2017-01-06T06:00:08.920Z,102754
2017-01-06T06:01:07.797Z,102755
2017-01-06T06:02:08.375Z,102754
2017-01-06T06:03:08.405Z,102764
2017-01-06T06:04:07.945Z,102755
2017-01-06T06:05:08.510Z,102754
2017-01-06T06:06:08.499Z,102755
2017-01-06T06:07:08.046Z,102751
2017-01-06T06:08:08.088Z,102750
2017-01-06T06:09:08.109Z,102758
2017-01-06T06:10:08.716Z,102750
2017-01-06T06:11:08.742Z,102759
2017-01-06T06:12:08.268Z,102761
2017-01-06T06:13:09.611Z,102766
2017-01-06T06:14:08.864Z,102761
2017-01-06T06:15:08.346Z,102758
2017-01-06T06:16:09.655Z,102761
2017-01-06T06:17:08.969Z,102761
2017-01-06T06:18:08.448Z,102761
2017-01-06T06:19:08.493Z,102750
2017-01-06T06:20:08.521Z,102760
2017-01-06T06:21:08.614Z,102746
2017-01-06T06:22:09.228Z,102757
2017-01-06T06:23:09.216Z,102744
2017-01-06T06:24:08.747Z,102746
2017-01-06T06:25:09.401Z,102751
2017-01-06T06:26:08.916Z,102745
2017-01-06T06:27:09.026Z,102738
2017-01-06T06:28:09.034Z,102752
2017-01-06T06:29:09.099Z,102752
2017-01-06T06:30:09.642Z,102746
2017-01-06T06:31:09.737Z,102748
2017-01-06T06:32:09.245Z,102752
2017-01-06T06:33:09.231Z,102750
2017-01-06T06:34:09.335Z,102754
2017-01-06T06:35:09.868Z,102754
2017-01-06T06:36:09.947Z,102751
2017-01-06T06:37:09.415Z,102751
2017-01-06T06:38:09.994Z,102744
2017-01-06T06:39:10.040Z,102740
2017-01-06T06:40:10.015Z,102749
2017-01-06T06:41:10.129Z,102741
2017-01-06T06:42:10.163Z,102740
2017-01-06T06:43:10.158Z,102745
2017-01-06T06:44:10.166Z,102748
2017-01-06T06:45:09.740Z,102747
2017-01-06T06:46:10.356Z,102749
2017-01-06T06:47:10.884Z,102754
2017-01-06T06:48:09.934Z,102753
2017-01-06T06:49:10.515Z,102751
2017-01-06T06:50:10.568Z,102754
2017-01-06T06:51:10.139Z,102752
2017-01-06T06:52:10.719Z,102751
2017-01-06T06:53:10.269Z,102752
2017-01-06T06:54:10.813Z,102754
2017-01-06T06:55:10.916Z,102749
2017-01-06T06:56:11.527Z,102752
2017-01-06T06:57:10.463Z,102747
2017-01-06T06:58:11.051Z,102750
2017-01-06T06:59:11.191Z,102739
2017-01-06T07:00:11.211Z,102750
2017-01-06T07:01:10.676Z,102742
2017-01-06T07:02:10.678Z,102744
2017-01-06T07:03:11.992Z,102752
2017-01-06T07:04:10.788Z,102757
2017-01-06T07:05:10.815Z,102755
2017-01-06T07:06:10.911Z,102759
2017-01-06T07:07:10.921Z,102758
2017-01-06T07:08:11.023Z,102759
2017-01-06T07:09:11.603Z,102753
2017-01-06T07:10:11.621Z,102761
2017-01-06T07:11:11.194Z,102760
2017-01-06T07:12:11.703Z,102761
2017-01-06T07:13:11.801Z,102761
2017-01-06T07:14:11.329Z,102759
2017-01-06T07:15:11.406Z,102755
2017-01-06T07:16:12.042Z,102763
2017-01-06T07:17:12.029Z,102759
2017-01-06T07:18:11.475Z,102763
2017-01-06T07:19:11.512Z,102763
2017-01-06T07:20:11.629Z,102767
2017-01-06T07:21:11.690Z,102764
2017-01-06T07:22:12.231Z,102765
2017-01-06T07:23:11.812Z,102763
2017-01-06T07:24:11.802Z,102756
2017-01-06T07:25:12.392Z,102759
2017-01-06T07:26:12.470Z,102762
2017-01-06T07:27:11.928Z,102763
2017-01-06T07:28:11.946Z,102753
2017-01-06T07:29:12.519Z,102758
2017-01-06T07:30:11.953Z,102757
2017-01-06T07:31:12.598Z,102762
2017-01-06T07:32:12.058Z,102755
2017-01-06T07:33:12.664Z,102764
2017-01-06T07:34:12.611Z,102763
2017-01-06T07:35:12.636Z,102762
2017-01-06T07:36:12.712Z,102768
2017-01-06T07:37:12.745Z,102767
2017-01-06T07:38:12.812Z,102761
2017-01-06T07:39:13.870Z,102765
2017-01-06T07:40:12.955Z,102769
2017-01-06T07:41:12.452Z,102768
2017-01-06T07:42:12.971Z,102777
2017-01-06T07:43:12.457Z,102781
2017-01-06T07:44:13.848Z,102779
2017-01-06T07:45:12.625Z,102773
2017-01-06T07:46:12.704Z,102783
2017-01-06T07:47:13.889Z,102786
2017-01-06T07:48:14.319Z,102786
2017-01-06T07:49:13.499Z,102786
2017-01-06T07:50:14.123Z,102788
2017-01-06T07:51:13.605Z,102789
2017-01-06T07:52:13.184Z,102792
2017-01-06T07:53:13.240Z,102790
2017-01-06T07:54:13.862Z,102791
2017-01-06T07:55:13.365Z,102789
2017-01-06T07:56:13.333Z,102798
2017-01-06T07:57:13.943Z,102800
2017-01-06T07:58:13.400Z,102803
2017-01-06T07:59:13.525Z,102808
2017-01-06T08:00:14.123Z,102810
2017-01-06T08:01:14.097Z,102809
2017-01-06T08:02:13.678Z,102809
2017-01-06T08:03:13.737Z,102808
2017-01-06T08:04:14.325Z,102816
2017-01-06T08:05:14.396Z,102817
2017-01-06T08:06:13.931Z,102809
2017-01-06T08:07:13.867Z,102808
2017-01-06T08:08:14.422Z,102815
2017-01-06T08:09:14.488Z,102818
2017-01-06T08:10:14.562Z,102802
2017-01-06T08:11:14.106Z,102810
2017-01-06T08:12:14.682Z,102811
2017-01-06T08:13:14.665Z,102816
2017-01-06T08:14:14.686Z,102817
2017-01-06T08:15:14.231Z,102812
2017-01-06T08:16:14.360Z,102820
2017-01-06T08:17:14.900Z,102808
2017-01-06T08:18:14.432Z,102813
2017-01-06T08:19:14.993Z,102809
2017-01-06T08:20:14.967Z,102815
2017-01-06T08:21:15.069Z,102819
2017-01-06T08:22:15.166Z,102820
2017-01-06T08:23:15.191Z,102810
2017-01-06T08:24:15.455Z,102818
2017-01-06T08:25:15.337Z,102808
2017-01-06T08:26:15.374Z,102813
2017-01-06T08:27:15.479Z,102821
2017-01-06T08:28:14.958Z,102818
2017-01-06T08:29:16.078Z,102815
2017-01-06T08:30:15.623Z,102815
2017-01-06T08:31:15.553Z,102809
2017-01-06T08:32:15.076Z,102811
2017-01-06T08:33:15.255Z,102813
2017-01-06T08:34:15.803Z,102807
2017-01-06T08:35:15.325Z,102810
2017-01-06T08:36:15.969Z,102803
2017-01-06T08:37:16.183Z,102809
2017-01-06T08:38:16.243Z,102802
2017-01-06T08:39:15.561Z,102807
2017-01-06T08:40:16.176Z,102812
2017-01-06T08:41:16.170Z,102809
2017-01-06T08:42:16.392Z,102810
2017-01-06T08:43:15.807Z,102810
2017-01-06T08:44:15.838Z,102813
2017-01-06T08:45:15.895Z,102818
2017-01-06T08:46:16.044Z,102820
2017-01-06T08:47:16.594Z,102826
2017-01-06T08:48:16.634Z,102823
2017-01-06T08:49:16.672Z,102823
2017-01-06T08:50:17.279Z,102815
2017-01-06T08:51:16.301Z,102824
2017-01-06T08:52:16.828Z,102819
2017-01-06T08:53:16.874Z,102818
2017-01-06T08:54:17.872Z,102823
2017-01-06T08:55:16.510Z,102818
2017-01-06T08:56:17.064Z,102815
2017-01-06T08:57:17.767Z,102815
2017-01-06T08:58:17.307Z,102816
2017-01-06T08:59:17.238Z,102821
2017-01-06T09:00:17.222Z,102814
2017-01-06T09:01:16.689Z,102820
2017-01-06T09:02:16.801Z,102812
2017-01-06T09:03:16.825Z,102822
2017-01-06T09:04:16.845Z,102824
2017-01-06T09:05:17.463Z,102824
2017-01-06T09:06:16.936Z,102827
2017-01-06T09:07:17.001Z,102823
2017-01-06T09:08:17.549Z,102825
2017-01-06T09:09:17.091Z,102828
2017-01-06T09:10:17.207Z,102828
2017-01-06T09:11:17.888Z,102827
2017-01-06T09:12:18.593Z,102829
2017-01-06T09:13:17.922Z,102828
2017-01-06T09:14:17.955Z,102831
2017-01-06T09:15:17.345Z,102831
2017-01-06T09:16:18.008Z,102827
2017-01-06T09:17:17.621Z,102821
2017-01-06T09:18:18.135Z,102823
2017-01-06T09:19:18.130Z,102823
2017-01-06T09:20:17.691Z,102823
2017-01-06T09:21:18.253Z,102821
2017-01-06T09:22:18.266Z,102822
2017-01-06T09:23:18.417Z,102817
2017-01-06T09:24:18.457Z,102817
2017-01-06T09:25:18.444Z,102816
2017-01-06T09:26:19.875Z,102804
2017-01-06T09:27:18.578Z,102815
2017-01-06T09:28:18.158Z,102815
2017-01-06T09:29:18.720Z,102814
2017-01-06T09:30:18.784Z,102809
2017-01-06T09:31:18.924Z,102822
2017-01-06T09:32:18.419Z,102816
2017-01-06T09:33:18.896Z,102821
2017-01-06T09:34:18.392Z,102811
2017-01-06T09:35:18.391Z,102818
2017-01-06T09:36:18.421Z,102818
2017-01-06T09:37:19.007Z,102824
2017-01-06T09:38:18.578Z,102821
2017-01-06T09:39:19.209Z,102822
2017-01-06T09:40:19.932Z,102813
2017-01-06T09:41:18.673Z,102820
2017-01-06T09:42:19.296Z,102820
2017-01-06T09:43:18.792Z,102822
2017-01-06T09:44:18.793Z,102814
2017-01-06T09:45:19.470Z,102825
2017-01-06T09:46:18.966Z,102825
2017-01-06T09:47:19.481Z,102824
2017-01-06T09:48:19.663Z,102825
2017-01-06T09:49:18.983Z,102826
2017-01-06T09:50:19.016Z,102828
2017-01-06T09:51:19.122Z,102816
2017-01-06T09:52:19.325Z,102817
2017-01-06T09:53:19.266Z,102826
2017-01-06T09:54:20.715Z,102825
2017-01-06T09:55:19.922Z,102828
2017-01-06T09:56:19.497Z,102826
2017-01-06T09:57:19.499Z,102819
2017-01-06T09:58:20.059Z,102824
2017-01-06T09:59:19.535Z,102815
2017-01-06T10:00:20.147Z,102814
2017-01-06T10:01:19.653Z,102801
2017-01-06T10:02:20.892Z,102807
2017-01-06T10:03:19.759Z,102808
2017-01-06T10:04:19.910Z,102801
2017-01-06T10:05:19.879Z,102801
2017-01-06T10:06:19.895Z,102807
2017-01-06T10:07:20.538Z,102809
2017-01-06T10:08:20.120Z,102811
2017-01-06T10:09:20.776Z,102809
2017-01-06T10:10:20.777Z,102801
2017-01-06T10:11:20.789Z,102801
2017-01-06T10:12:20.279Z,102795
2017-01-06T10:13:20.851Z,102784
2017-01-06T10:14:20.837Z,102791
2017-01-06T10:15:20.432Z,102788
2017-01-06T10:16:21.549Z,102787
2017-01-06T10:17:20.472Z,102785
2017-01-06T10:18:21.039Z,102786
2017-01-06T10:19:21.828Z,102773
2017-01-06T10:20:20.734Z,102780
2017-01-06T10:21:21.239Z,102779
2017-01-06T10:22:21.379Z,102771
2017-01-06T10:23:21.311Z,102769
2017-01-06T10:24:21.364Z,102768
2017-01-06T10:25:21.393Z,102756
2017-01-06T10:26:20.866Z,102763
2017-01-06T10:27:21.501Z,102765
2017-01-06T10:28:21.537Z,102761
2017-01-06T10:29:21.628Z,102757
2017-01-06T10:30:21.031Z,102758
2017-01-06T10:31:22.153Z,102758
2017-01-06T10:32:21.761Z,102758
2017-01-06T10:33:21.739Z,102756
2017-01-06T10:34:21.275Z,102758
2017-01-06T10:35:21.850Z,102754
2017-01-06T10:36:22.020Z,102756
2017-01-06T10:37:23.240Z,102753
2017-01-06T10:38:21.348Z,102751
2017-01-06T10:39:21.402Z,102741
2017-01-06T10:40:21.999Z,102731
2017-01-06T10:41:21.509Z,102737
2017-01-06T10:42:22.055Z,102743
2017-01-06T10:43:22.130Z,102745
2017-01-06T10:44:22.161Z,102741
2017-01-06T10:45:21.680Z,102740
2017-01-06T10:46:22.205Z,102738
2017-01-06T10:47:22.248Z,102743
2017-01-06T10:48:22.356Z,102741
2017-01-06T10:49:22.409Z,102741
2017-01-06T10:50:22.443Z,102737
2017-01-06T10:51:22.469Z,102742
2017-01-06T10:52:22.588Z,102740
2017-01-06T10:53:22.567Z,102734
2017-01-06T10:54:44.485Z,102729
2017-01-06T10:55:43.997Z,102731
2017-01-06T10:56:45.276Z,102731
2017-01-06T10:57:43.993Z,102726
2017-01-06T10:58:44.560Z,102731
2017-01-06T10:59:44.157Z,102740
2017-01-06T11:00:44.745Z,102731
2017-01-06T11:01:44.245Z,102731
2017-01-06T11:02:44.333Z,102735
2017-01-06T11:03:44.962Z,102734
2017-01-06T11:04:45.913Z,102727
2017-01-06T11:05:45.033Z,102729
2017-01-06T11:06:44.608Z,102726
2017-01-06T11:07:45.155Z,102722
2017-01-06T11:08:45.124Z,102724
2017-01-06T11:09:45.235Z,102712
2017-01-06T11:10:44.658Z,102717
2017-01-06T11:11:45.250Z,102717
2017-01-06T11:12:44.836Z,102714
2017-01-06T11:13:46.019Z,102713
2017-01-06T11:14:44.860Z,102715
2017-01-06T11:15:44.891Z,102719
2017-01-06T11:16:45.454Z,102717
2017-01-06T11:17:45.858Z,102725
2017-01-06T11:18:45.175Z,102727
2017-01-06T11:19:45.146Z,102721
2017-01-06T11:20:45.738Z,102720
2017-01-06T11:21:45.234Z,102711
2017-01-06T11:22:45.871Z,102720
2017-01-06T11:23:45.889Z,102723
2017-01-06T11:24:45.374Z,102727
2017-01-06T11:25:45.460Z,102724
2017-01-06T11:26:49.558Z,102724
2017-01-06T11:27:46.732Z,102734
2017-01-06T11:28:46.000Z,102726
2017-01-06T11:29:46.148Z,102729
2017-01-06T11:30:45.640Z,102728
2017-01-06T11:31:45.699Z,102722
2017-01-06T11:32:45.775Z,102733
2017-01-06T11:33:45.824Z,102739
2017-01-06T11:34:46.429Z,102737
2017-01-06T11:35:46.433Z,102734
2017-01-06T11:36:45.907Z,102724
2017-01-06T11:37:47.149Z,102735
2017-01-06T11:38:46.538Z,102709
2017-01-06T11:39:45.997Z,102725
2017-01-06T11:40:47.290Z,102720
2017-01-06T11:41:46.620Z,102722
2017-01-06T11:42:46.101Z,102722
2017-01-06T11:43:46.717Z,102711
2017-01-06T11:44:46.294Z,102717
2017-01-06T11:45:46.249Z,102718
2017-01-06T11:46:46.314Z,102723
2017-01-06T11:47:47.472Z,102715
2017-01-06T11:48:47.003Z,102729
2017-01-06T11:49:46.503Z,102716
2017-01-06T11:50:47.100Z,102726
2017-01-06T11:51:46.652Z,102722
2017-01-06T11:52:46.631Z,102721
2017-01-06T11:53:46.672Z,102714
2017-01-06T11:54:47.239Z,102715
2017-01-06T11:55:46.751Z,102719
2017-01-06T11:56:48.024Z,102715
2017-01-06T11:57:47.413Z,102718
2017-01-06T11:58:47.494Z,102719
2017-01-06T11:59:47.741Z,102714
2017-01-06T12:00:47.038Z,102722
2017-01-06T12:01:47.533Z,102714
2017-01-06T12:02:47.560Z,102715
2017-01-06T12:03:47.079Z,102716
2017-01-06T12:04:47.719Z,102712
2017-01-06T12:05:47.720Z,102721
2017-01-06T12:06:47.808Z,102718
2017-01-06T12:07:47.934Z,102719
2017-01-06T12:08:47.305Z,102718
2017-01-06T12:09:47.957Z,102724
2017-01-06T12:10:47.995Z,102724
2017-01-06T12:11:47.550Z,102722
2017-01-06T12:12:47.464Z,102726
2017-01-06T12:13:47.536Z,102723
2017-01-06T12:14:48.180Z,102711
2017-01-06T12:15:48.261Z,102717
2017-01-06T12:16:48.368Z,102712
2017-01-06T12:17:47.805Z,102720
2017-01-06T12:18:47.901Z,102721
2017-01-06T12:19:48.623Z,102717
2017-01-06T12:20:48.050Z,102712
2017-01-06T12:21:48.606Z,102727
2017-01-06T12:22:48.568Z,102723
2017-01-06T12:23:48.047Z,102731
2017-01-06T12:24:48.602Z,102724
2017-01-06T12:25:48.675Z,102722
2017-01-06T12:26:48.732Z,102720
2017-01-06T12:27:48.806Z,102723
2017-01-06T12:28:49.467Z,102723
2017-01-06T12:29:48.259Z,102722